Impacts METAR Board
IDs:

KAUS - Austin/Bergstrom Int, TX, US

Updated at: 1700 UTC 16 Oct 2021
Potential Impact None Slight Moderate High
Time 16/05Z 16/06Z 16/07Z 16/08Z 16/09Z 16/10Z 16/11Z 16/12Z 16/13Z 16/14Z 16/15Z 16/16Z 16/17Z
Temp66 64 63 61 61 60 57 57 57 60 65 68 69
Dewpt47 46 45 44 43 43 44 43 44 44 44 43 40
Altim30.21 30.22 30.24 30.24 30.25 30.26 30.28 30.31 30.33 30.35 30.37 30.37 30.36
VIS10 10 10 10 10 10 10 10 10 10 10 10 10
CIG200 -- 200 -- -- -- -- -- -- -- -- -- --
CoverBKNSCTBKNSCTFEWFEWFEWFEWSCTFEWFEWFEWFEW
FltCatVFRVFRVFRVFRVFRVFRVFRVFRVFRVFRVFRVFRVFR
WX--------------------------
WDir360360103601010101010360303020
WSpd15 13 14 14 14 13 12 9 9 10 14 14 14
WGst-- 21 -- -- -- -- -- -- -- -- 20 -- 23
Raw hourly METARs
KAUS 160453Z 36015KT 10SM FEW080 BKN200 19/08 A3021 RMK AO2 SLP222 T01890083
KAUS 160553Z 36013G21KT 10SM SCT200 18/08 A3022 RMK AO2 SLP226 60000 T01780078 10233 20178 403170178 51025
KAUS 160653Z 01014KT 10SM BKN200 17/07 A3024 RMK AO2 SLP232 T01720072
KAUS 160753Z 36014KT 10SM SCT200 16/07 A3024 RMK AO2 SLP233 T01610067
KAUS 160853Z 01014KT 10SM FEW200 16/06 A3025 RMK AO2 SLP238 T01610061 51010
KAUS 160953Z 01013KT 10SM FEW200 16/06 A3026 RMK AO2 SLP242 T01560061
KAUS 161053Z 01012KT 10SM FEW200 14/07 A3028 RMK AO2 SLP249 T01390067
KAUS 161153Z 01009KT 10SM FEW200 14/06 A3031 RMK AO2 SLP260 T01390061 10178 20139 53019
KAUS 161253Z 01009KT 10SM FEW200 SCT250 14/07 A3033 RMK AO2 SLP267 T01390067
KAUS 161353Z 36010KT 10SM FEW200 FEW250 16/07 A3035 RMK AO2 SLP275 T01560067
KAUS 161453Z 03014G20KT 10SM FEW200 FEW250 18/07 A3037 RMK AO2 SLP278 T01830067 51019
KAUS 161553Z 03014KT 10SM FEW200 FEW250 20/06 A3037 RMK AO2 SLP278 T02000061
KAUS 161653Z 02014G23KT 10SM FEW250 21/04 A3036 RMK AO2 SLP276 T02060044